Time,TemperatureF,DewpointF,PressureIn,WindDirection,WindDirectionDegrees,WindSpeedMPH,WindSpeedGustMPH,Humidity,HourlyPrecipIn,Conditions,Clouds,dailyrainin,SoftwareType,DateUTC
2013-01-10 00:04:00,37.6,34.0,30.22,ENE,76,2.0,-999.0,85,-99.99,,,0.00,weatherlink.com 1.10,2013-01-10 05:04:00,
2013-01-10 00:19:00,37.7,33.0,30.23,WSW,249,2.0,-999.0,84,-99.99,,,0.00,weatherlink.com 1.10,2013-01-10 05:19:00,
2013-01-10 00:45:00,38.1,33.0,30.25,West,260,0.0,-999.0,81,-99.99,,,0.00,weatherlink.com 1.10,2013-01-10 05:45:00,
2013-01-10 01:04:00,38.4,32.0,30.25,SW,232,0.0,-999.0,78,-99.99,,,0.00,weatherlink.com 1.10,2013-01-10 06:04:00,
2013-01-10 01:19:00,38.8,32.0,30.25,WSW,238,2.0,-999.0,76,-99.99,,,0.00,weatherlink.com 1.10,2013-01-10 06:19:00,
2013-01-10 01:34:00,39.1,32.0,30.28,North,9,4.0,-999.0,75,-99.99,,,0.00,weatherlink.com 1.10,2013-01-10 06:34:00,
2013-01-10 01:49:00,37.5,33.0,30.29,NE,44,0.0,-999.0,85,-99.99,,,0.00,weatherlink.com 1.10,2013-01-10 06:49:00,
2013-01-10 02:04:00,37.1,33.0,30.29,WSW,245,1.0,-999.0,85,-99.99,,,0.00,weatherlink.com 1.10,2013-01-10 07:04:00,
2013-01-10 02:19:00,37.1,32.0,30.29,WSW,240,0.0,-999.0,83,-99.99,,,0.00,weatherlink.com 1.10,2013-01-10 07:19:00,
2013-01-10 02:34:00,37.9,31.0,30.30,West,265,0.0,-999.0,77,-99.99,,,0.00,weatherlink.com 1.10,2013-01-10 07:34:00,
2013-01-10 02:49:00,38.2,30.0,30.31,WNW,303,0.0,-999.0,73,-99.99,,,0.00,weatherlink.com 1.10,2013-01-10 07:49:00,
2013-01-10 03:04:00,38.2,30.0,30.32,NNW,346,3.0,-999.0,71,-99.99,,,0.00,weatherlink.com 1.10,2013-01-10 08:04:00,
2013-01-10 03:19:00,38.2,29.0,30.33,NNW,338,1.0,-999.0,69,-99.99,,,0.00,weatherlink.com 1.10,2013-01-10 08:19:00,
2013-01-10 03:34:00,38.1,28.0,30.34,WSW,240,5.0,-999.0,67,-99.99,,,0.00,weatherlink.com 1.10,2013-01-10 08:34:00,
2013-01-10 03:49:00,38.0,27.0,30.34,WSW,258,0.0,-999.0,66,-99.99,,,0.00,weatherlink.com 1.10,2013-01-10 08:49:00,
2013-01-10 04:04:00,37.8,28.0,30.34,SW,227,2.0,-999.0,67,-99.99,,,0.00,weatherlink.com 1.10,2013-01-10 09:04:00,
2013-01-10 04:19:00,37.7,27.0,30.35,NW,325,0.0,-999.0,66,-99.99,,,0.00,weatherlink.com 1.10,2013-01-10 09:19:00,
2013-01-10 04:34:00,37.5,27.0,30.35,West,266,0.0,-999.0,65,-99.99,,,0.00,weatherlink.com 1.10,2013-01-10 09:34:00,
2013-01-10 04:49:00,37.3,27.0,30.35,NW,309,0.0,-999.0,66,-99.99,,,0.00,weatherlink.com 1.10,2013-01-10 09:49:00,
2013-01-10 05:04:00,37.1,27.0,30.36,NNW,333,0.0,-999.0,66,-99.99,,,0.00,weatherlink.com 1.10,2013-01-10 10:04:00,
2013-01-10 05:19:00,36.5,26.0,30.38,WNW,293,0.0,-999.0,66,-99.99,,,0.00,weatherlink.com 1.10,2013-01-10 10:19:00,
2013-01-10 05:34:00,36.3,26.0,30.38,NW,311,0.0,-999.0,67,-99.99,,,0.00,weatherlink.com 1.10,2013-01-10 10:34:00,
2013-01-10 05:49:00,36.0,26.0,30.40,NW,315,0.0,-999.0,67,-99.99,,,0.00,weatherlink.com 1.10,2013-01-10 10:49:00,
2013-01-10 06:04:00,35.9,26.0,30.41,NNW,345,0.0,-999.0,67,-99.99,,,0.00,weatherlink.com 1.10,2013-01-10 11:04:00,
2013-01-10 06:20:00,36.2,26.0,30.42,NW,321,0.0,-999.0,66,-99.99,,,0.00,weatherlink.com 1.10,2013-01-10 11:20:00,
2013-01-10 06:35:00,35.5,25.0,30.44,NNW,340,0.0,-999.0,67,-99.99,,,0.00,weatherlink.com 1.10,2013-01-10 11:35:00,
2013-01-10 06:50:00,35.2,26.0,30.44,NNW,344,0.0,-999.0,69,-99.99,,,0.00,weatherlink.com 1.10,2013-01-10 11:50:00,
2013-01-10 07:05:00,34.9,26.0,30.45,ENE,76,0.0,-999.0,69,-99.99,,,0.00,weatherlink.com 1.10,2013-01-10 12:05:00,
2013-01-10 07:20:00,34.5,26.0,30.46,NE,53,0.0,-999.0,72,-99.99,,,0.00,weatherlink.com 1.10,2013-01-10 12:20:00,
2013-01-10 07:35:00,33.6,26.0,30.47,NE,53,0.0,-999.0,75,-99.99,,,0.00,weatherlink.com 1.10,2013-01-10 12:35:00,
2013-01-10 07:50:00,33.1,26.0,30.48,NE,53,0.0,-999.0,76,-99.99,,,0.00,weatherlink.com 1.10,2013-01-10 12:50:00,
2013-01-10 08:05:00,33.4,26.0,30.49,NW,321,0.0,-999.0,73,-99.99,,,0.00,weatherlink.com 1.10,2013-01-10 13:05:00,
2013-01-10 08:20:00,34.3,26.0,30.50,West,260,0.0,-999.0,71,-99.99,,,0.00,weatherlink.com 1.10,2013-01-10 13:20:00,
2013-01-10 08:35:00,35.5,26.0,30.51,West,261,0.0,-999.0,69,-99.99,,,0.00,weatherlink.com 1.10,2013-01-10 13:35:00,
2013-01-10 08:50:00,36.1,26.0,30.50,SW,236,0.0,-999.0,68,-99.99,,,0.00,weatherlink.com 1.10,2013-01-10 13:50:00,
2013-01-10 09:08:00,36.5,26.0,30.52,West,264,1.0,-999.0,67,-99.99,,,0.00,weatherlink.com 1.10,2013-01-10 14:08:00,
2013-01-10 09:20:00,36.9,27.0,30.52,West,264,0.0,-999.0,67,-99.99,,,0.00,weatherlink.com 1.10,2013-01-10 14:20:00,
2013-01-10 09:35:00,37.4,27.0,30.54,WSW,257,0.0,-999.0,66,-99.99,,,0.00,weatherlink.com 1.10,2013-01-10 14:35:00,
2013-01-10 09:50:00,38.0,27.0,30.55,WSW,245,0.0,-999.0,64,-99.99,,,0.00,weatherlink.com 1.10,2013-01-10 14:50:00,
2013-01-10 10:05:00,38.0,27.0,30.55,WSW,252,0.0,-999.0,65,-99.99,,,0.00,weatherlink.com 1.10,2013-01-10 15:05:00,
2013-01-10 10:20:00,38.3,27.0,30.55,WSW,242,0.0,-999.0,65,-99.99,,,0.00,weatherlink.com 1.10,2013-01-10 15:20:00,
2013-01-10 10:35:00,38.7,27.0,30.55,WSW,257,0.0,-999.0,64,-99.99,,,0.00,weatherlink.com 1.10,2013-01-10 15:35:00,
2013-01-10 10:50:00,39.7,27.0,30.54,WSW,248,0.0,-999.0,62,-99.99,,,0.00,weatherlink.com 1.10,2013-01-10 15:50:00,
2013-01-10 11:05:00,40.5,28.0,30.54,SW,226,0.0,-999.0,62,-99.99,,,0.00,weatherlink.com 1.10,2013-01-10 16:05:00,
2013-01-10 11:20:00,41.1,27.0,30.53,West,272,0.0,-999.0,57,-99.99,,,0.00,weatherlink.com 1.10,2013-01-10 16:20:00,
2013-01-10 11:35:00,41.3,26.0,30.53,NW,318,1.0,-999.0,56,-99.99,,,0.00,weatherlink.com 1.10,2013-01-10 16:35:00,
2013-01-10 11:50:00,41.4,27.0,30.52,NNW,344,0.0,-999.0,57,-99.99,,,0.00,weatherlink.com 1.10,2013-01-10 16:50:00,
2013-01-10 12:05:00,41.9,26.0,30.52,WSW,257,0.0,-999.0,53,-99.99,,,0.00,weatherlink.com 1.10,2013-01-10 17:05:00,
2013-01-10 12:20:00,42.3,27.0,30.52,SW,229,0.0,-999.0,54,-99.99,,,0.00,weatherlink.com 1.10,2013-01-10 17:20:00,
2013-01-10 12:35:00,42.8,27.0,30.51,West,259,0.0,-999.0,53,-99.99,,,0.00,weatherlink.com 1.10,2013-01-10 17:35:00,
2013-01-10 12:50:00,43.4,27.0,30.51,SW,223,1.0,-999.0,53,-99.99,,,0.02,weatherlink.com 1.10,2013-01-10 17:50:00,
2013-01-10 13:05:00,43.5,26.0,30.51,NW,309,0.0,-999.0,51,-99.99,,,0.03,weatherlink.com 1.10,2013-01-10 18:05:00,
2013-01-10 13:20:00,43.1,25.0,30.52,West,277,0.0,-999.0,50,-99.99,,,0.04,weatherlink.com 1.10,2013-01-10 18:20:00,
2013-01-10 13:35:00,43.2,26.0,30.52,North,355,2.0,-999.0,50,-99.99,,,0.04,weatherlink.com 1.10,2013-01-10 18:35:00,
2013-01-10 13:50:00,43.8,26.0,30.52,WSW,240,1.0,-999.0,50,-99.99,,,0.04,weatherlink.com 1.10,2013-01-10 18:50:00,
2013-01-10 14:05:00,43.7,26.0,30.53,WSW,241,0.0,-999.0,50,-99.99,,,0.04,weatherlink.com 1.10,2013-01-10 19:05:00,
2013-01-10 14:20:00,43.4,26.0,30.53,West,268,0.0,-999.0,50,-99.99,,,0.04,weatherlink.com 1.10,2013-01-10 19:20:00,
2013-01-10 14:35:00,43.2,26.0,30.53,NW,307,1.0,-999.0,51,-99.99,,,0.04,weatherlink.com 1.10,2013-01-10 19:35:00,
2013-01-10 14:50:00,43.1,26.0,30.54,WNW,298,0.0,-999.0,51,-99.99,,,0.04,weatherlink.com 1.10,2013-01-10 19:50:00,
2013-01-10 15:06:00,43.1,25.0,30.54,SW,215,0.0,-999.0,50,-99.99,,,0.04,weatherlink.com 1.10,2013-01-10 20:06:00,
2013-01-10 15:21:00,42.4,26.0,30.54,WNW,302,1.0,-999.0,53,-99.99,,,0.04,weatherlink.com 1.10,2013-01-10 20:21:00,
2013-01-10 15:36:00,42.4,25.0,30.55,NW,323,0.0,-999.0,51,-99.99,,,0.04,weatherlink.com 1.10,2013-01-10 20:36:00,
2013-01-10 15:51:00,42.7,26.0,30.55,NW,325,0.0,-999.0,52,-99.99,,,0.04,weatherlink.com 1.10,2013-01-10 20:51:00,
2013-01-10 16:06:00,41.6,26.0,30.55,NNW,327,0.0,-999.0,54,-99.99,,,0.04,weatherlink.com 1.10,2013-01-10 21:06:00,
2013-01-10 16:21:00,40.6,26.0,30.56,NW,323,0.0,-999.0,57,-99.99,,,0.04,weatherlink.com 1.10,2013-01-10 21:21:00,
2013-01-10 16:36:00,39.4,26.0,30.56,NW,323,0.0,-999.0,58,-99.99,,,0.04,weatherlink.com 1.10,2013-01-10 21:36:00,
2013-01-10 16:51:00,38.3,25.0,30.56,NW,324,0.0,-999.0,60,-99.99,,,0.04,weatherlink.com 1.10,2013-01-10 21:51:00,
2013-01-10 17:06:00,36.1,26.0,30.56,NW,323,0.0,-999.0,67,-99.99,,,0.04,weatherlink.com 1.10,2013-01-10 22:06:00,
2013-01-10 17:21:00,34.7,25.0,30.57,NW,324,0.0,-999.0,68,-99.99,,,0.04,weatherlink.com 1.10,2013-01-10 22:21:00,
2013-01-10 17:36:00,33.6,25.0,30.56,NW,324,0.0,-999.0,72,-99.99,,,0.04,weatherlink.com 1.10,2013-01-10 22:36:00,
2013-01-10 17:51:00,33.4,26.0,30.57,NW,324,0.0,-999.0,73,-99.99,,,0.04,weatherlink.com 1.10,2013-01-10 22:51:00,
2013-01-10 18:06:00,33.0,25.0,30.57,NW,324,0.0,-999.0,73,-99.99,,,0.04,weatherlink.com 1.10,2013-01-10 23:06:00,
2013-01-10 18:21:00,32.2,25.0,30.57,NW,323,0.0,-999.0,75,-99.99,,,0.04,weatherlink.com 1.10,2013-01-10 23:21:00,
2013-01-10 18:36:00,31.3,25.0,30.57,NW,324,0.0,-999.0,78,-99.99,,,0.04,weatherlink.com 1.10,2013-01-10 23:36:00,
2013-01-10 18:51:00,30.7,25.0,30.58,NW,323,0.0,-999.0,79,-99.99,,,0.04,weatherlink.com 1.10,2013-01-10 23:51:00,
2013-01-10 19:06:00,29.9,24.0,30.59,NW,324,0.0,-999.0,80,-99.99,,,0.04,weatherlink.com 1.10,2013-01-11 00:06:00,
2013-01-10 19:21:00,29.4,25.0,30.59,NW,323,0.0,-999.0,82,-99.99,,,0.04,weatherlink.com 1.10,2013-01-11 00:21:00,
2013-01-10 19:36:00,28.9,24.0,30.59,NW,323,0.0,-999.0,83,-99.99,,,0.04,weatherlink.com 1.10,2013-01-11 00:36:00,
2013-01-10 19:51:00,28.9,24.0,30.60,NW,323,0.0,-999.0,83,-99.99,,,0.04,weatherlink.com 1.10,2013-01-11 00:51:00,
2013-01-10 20:06:00,29.1,24.0,30.61,NW,323,0.0,-999.0,82,-99.99,,,0.04,weatherlink.com 1.10,2013-01-11 01:06:00,
2013-01-10 20:21:00,28.4,24.0,30.61,NNW,346,1.0,-999.0,84,-99.99,,,0.04,weatherlink.com 1.10,2013-01-11 01:21:00,
2013-01-10 20:51:00,28.0,24.0,30.61,NNW,347,0.0,-999.0,85,-99.99,,,0.04,weatherlink.com 1.10,2013-01-11 01:51:00,
2013-01-10 21:06:00,27.8,24.0,30.61,NNW,347,0.0,-999.0,85,-99.99,,,0.04,weatherlink.com 1.10,2013-01-11 02:06:00,
2013-01-10 21:21:00,27.5,24.0,30.61,NNW,347,0.0,-999.0,85,-99.99,,,0.04,weatherlink.com 1.10,2013-01-11 02:21:00,
2013-01-10 21:36:00,27.4,24.0,30.61,NNW,347,0.0,-999.0,86,-99.99,,,0.04,weatherlink.com 1.10,2013-01-11 02:36:00,
2013-01-10 21:51:00,27.2,24.0,30.61,NNW,346,0.0,-999.0,86,-99.99,,,0.04,weatherlink.com 1.10,2013-01-11 02:51:00,
2013-01-10 22:06:00,27.1,24.0,30.61,NNW,346,0.0,-999.0,86,-99.99,,,0.04,weatherlink.com 1.10,2013-01-11 03:06:00,
2013-01-10 22:21:00,27.5,24.0,30.62,NNW,346,0.0,-999.0,87,-99.99,,,0.04,weatherlink.com 1.10,2013-01-11 03:21:00,
2013-01-10 22:36:00,27.8,24.0,30.62,NNW,346,0.0,-999.0,86,-99.99,,,0.04,weatherlink.com 1.10,2013-01-11 03:36:00,
2013-01-10 22:51:00,27.3,23.0,30.62,NNW,346,0.0,-999.0,85,-99.99,,,0.04,weatherlink.com 1.10,2013-01-11 03:51:00,
2013-01-10 23:06:00,26.8,24.0,30.62,NNW,346,0.0,-999.0,87,-99.99,,,0.04,weatherlink.com 1.10,2013-01-11 04:06:00,
2013-01-10 23:21:00,26.4,23.0,30.63,NNW,346,0.0,-999.0,87,-99.99,,,0.04,weatherlink.com 1.10,2013-01-11 04:21:00,
2013-01-10 23:36:00,26.0,23.0,30.62,NNW,346,0.0,-999.0,87,-99.99,,,0.04,weatherlink.com 1.10,2013-01-11 04:36:00,
2013-01-10 23:51:00,25.5,23.0,30.61,NNW,346,0.0,-999.0,88,-99.99,,,0.04,weatherlink.com 1.10,2013-01-11 04:51:00,